Forside
METAR-TAF:

METAR-TAF

Lufthavne :

Jizan, Saudi-Arabien

Breddekreds: 16-54N, længdekreds: 042-35E, højde: 6 m

Aktuelle vejr

Denne rapport blev lavet for 1 time og 8 minutter siden, kl. 23:00 UTC
Vind 3 kt fra sydsydøst
Temperatur 33°C
Fugtighed 46%
Tryk 1003 hPa
Sigt 10 km eller mere
Nogle få skyer i en højde af 3000 ft
Brudte skyer i en højde af 10000 ft

METAR: OEGN 162300Z 16003KT 9999 FEW030 BKN100 33/20 Q1003 NOSIG

Tid: 03:08 (00:08 UTC)

Vejrudsigter

Denne rapport blev lavet for 1 time og 8 minutter siden, kl. 23:00 UTC
Foreløbig gælder fra 17 på 00 UTC til 18 på 06 UTC
Vind 3 kt fra varierende retninger
Sigt 10 km eller mere
Nogle få skyer i en højde af 3000 ft
Spredte skyer i en højde af 10000 ft
ændring
fra 17 på 06 UTC til 17 på 08 UTC
Vind 16 kt fra vestnordvest
Midlertidig
mellem 60 og 00 UTC
Spredte skyer i en højde af 3000 ft

TAF: OEGN 162300Z 1700/1806 VRB03KT 9999 FEW030 SCT100 BECMG 1706/1708 29016KT TEMPO 6000 SCT030

Vejrobservationer og prognoser fra mere end 4000 lufthavne (METAR og TAF).

De gule og røde prikker repræsenterer de meteorologiske stationer.

Flyt musen over at se navnet på stationen.

Så klik over at se vejr observationer og prognoser.

At skifte det kort: Klik på de grønne knapper med et sort kors for at zoome ind; på den grønne knap med en bindestreg for at zoome ud; eller på de grønne pile for tilstødende kort.


METAR-TAF: